Chicago (ORD/KORD)

Information

Location
Chicago-O'Hare, IL
Local Time
00:41 / 12:41 am
GMT Time
05:41 / 5:41 am
No FAA reported delays
METAR KORD 190451Z 22012G17KT 10SM FEW250 16/07 A3003 RMK AO2 SLP169 T01610067
TAF KORD 190258Z 1903/2006 21011KT P6SM SCT250 WS020/22040KT FM190600 23007KT P6SM FEW250 FM191300 29005KT P6SM FEW250 FM192100 14005KT P6SM SCT250